createdAt,value
2023-05-04T00:00:00.337Z,19.08
2023-05-04T00:02:30.707Z,14.75
2023-05-04T00:05:01.612Z,12.70
2023-05-04T00:07:32.095Z,16.65
2023-05-04T00:10:03.159Z,15.10
2023-05-04T00:12:35.226Z,16.00
2023-05-04T00:15:07.638Z,17.58
2023-05-04T00:17:38.029Z,18.17
2023-05-04T00:20:10.474Z,18.92
2023-05-04T00:22:41.049Z,18.27
2023-05-04T00:25:12.108Z,14.77
2023-05-04T00:27:44.016Z,14.55
2023-05-04T00:30:15.650Z,11.60
2023-05-04T00:32:46.600Z,13.73
2023-05-04T00:35:17.389Z,13.95
2023-05-04T00:37:47.582Z,15.75
2023-05-04T00:40:18.316Z,12.57
2023-05-04T00:42:49.822Z,12.00
2023-05-04T00:45:20.984Z,12.90
2023-05-04T00:47:51.719Z,11.52
2023-05-04T00:50:23.344Z,13.30
2023-05-04T00:52:56.771Z,12.77
2023-05-04T00:55:27.852Z,13.85
2023-05-04T00:58:00.171Z,12.85
2023-05-04T01:00:31.301Z,12.45
2023-05-04T01:03:01.797Z,12.45
2023-05-04T01:05:38.858Z,14.07
2023-05-04T01:08:16.077Z,13.77
2023-05-04T01:10:55.508Z,14.35
2023-05-04T01:13:28.481Z,16.60
2023-05-04T01:15:59.418Z,12.63
2023-05-04T01:18:29.966Z,13.60
2023-05-04T01:21:01.593Z,15.18
2023-05-04T01:23:35.251Z,12.80
2023-05-04T01:26:15.701Z,12.75
2023-05-04T01:28:54.197Z,11.48
2023-05-04T01:31:27.754Z,12.35
2023-05-04T01:33:58.703Z,11.50
2023-05-04T01:36:30.702Z,10.35
2023-05-04T01:39:02.346Z,11.25
2023-05-04T01:41:34.560Z,9.52
2023-05-04T01:44:06.759Z,10.35
2023-05-04T01:46:37.547Z,8.38
2023-05-04T01:49:08.218Z,7.50
2023-05-04T01:51:39.292Z,9.82
2023-05-04T01:54:11.291Z,10.05
2023-05-04T01:56:42.253Z,10.25
2023-05-04T01:59:12.653Z,9.88
2023-05-04T02:01:44.724Z,11.70
2023-05-04T02:04:15.106Z,12.52
2023-05-04T02:06:45.741Z,13.63
2023-05-04T02:09:19.404Z,8.75
2023-05-04T02:11:50.277Z,15.70
2023-05-04T02:14:21.326Z,9.40
2023-05-04T02:16:52.222Z,14.20
2023-05-04T02:19:23.887Z,14.10
2023-05-04T02:21:54.664Z,12.18
2023-05-04T02:24:27.065Z,14.85
2023-05-04T02:26:58.663Z,14.35
2023-05-04T02:29:29.369Z,14.10
2023-05-04T02:32:00.203Z,15.88
2023-05-04T02:34:32.586Z,14.20
2023-05-04T02:37:07.219Z,13.80
2023-05-04T02:39:40.190Z,14.55
2023-05-04T02:42:11.104Z,11.65
2023-05-04T02:44:42.021Z,16.50
2023-05-04T02:47:12.870Z,14.82
2023-05-04T02:49:43.511Z,10.57
2023-05-04T02:52:15.620Z,12.95
2023-05-04T02:54:48.104Z,11.23
2023-05-04T02:57:19.023Z,9.95
2023-05-04T02:59:49.464Z,11.82
2023-05-04T03:02:20.337Z,13.52
2023-05-04T03:04:50.986Z,15.18
2023-05-04T03:07:21.867Z,14.65
2023-05-04T03:09:53.582Z,16.00
2023-05-04T03:12:25.661Z,19.00
2023-05-04T03:14:56.322Z,19.02
2023-05-04T03:17:26.969Z,20.40
2023-05-04T03:19:59.190Z,19.38
2023-05-04T03:22:32.190Z,28.63
2023-05-04T03:25:04.321Z,24.95
2023-05-04T03:27:35.025Z,25.63
2023-05-04T03:30:06.837Z,23.42
2023-05-04T03:32:39.618Z,22.90
2023-05-04T03:35:10.841Z,27.83
2023-05-04T03:37:43.484Z,19.73
2023-05-04T03:40:17.538Z,18.45
2023-05-04T03:42:49.386Z,17.80
2023-05-04T03:45:20.658Z,19.88
2023-05-04T03:47:51.428Z,20.90
2023-05-04T03:50:23.761Z,17.27
2023-05-04T03:52:54.489Z,17.25
2023-05-04T03:55:28.814Z,15.43
2023-05-04T03:57:59.637Z,19.08
2023-05-04T04:00:30.937Z,14.77
2023-05-04T04:03:11.630Z,16.27
2023-05-04T04:05:42.237Z,12.75
2023-05-04T04:08:14.406Z,21.73
2023-05-04T04:10:46.982Z,18.98
2023-05-04T04:13:17.868Z,16.33
2023-05-04T04:15:48.534Z,14.60
2023-05-04T04:18:19.325Z,14.95
2023-05-04T04:20:49.680Z,19.77
2023-05-04T04:23:20.512Z,16.50
2023-05-04T04:25:54.101Z,18.17
2023-05-04T04:28:24.936Z,17.52
2023-05-04T04:30:55.420Z,18.70
2023-05-04T04:33:26.197Z,16.10
2023-05-04T04:35:56.792Z,17.33
2023-05-04T04:38:27.602Z,20.75
2023-05-04T04:40:59.447Z,18.35
2023-05-04T04:43:30.192Z,14.07
2023-05-04T04:46:00.645Z,15.80
2023-05-04T04:48:31.555Z,13.63
2023-05-04T04:51:02.001Z,13.70
2023-05-04T04:53:32.773Z,15.40
2023-05-04T04:56:05.302Z,17.70
2023-05-04T04:58:36.230Z,15.73
2023-05-04T05:01:08.349Z,14.05
2023-05-04T05:03:39.194Z,15.82
2023-05-04T05:06:09.718Z,13.82
2023-05-04T05:08:40.982Z,14.77
2023-05-04T05:11:13.019Z,9.73
2023-05-04T05:13:44.098Z,14.05
2023-05-04T05:16:14.576Z,10.00
2023-05-04T05:18:45.359Z,15.00
2023-05-04T05:21:16.157Z,14.23
2023-05-04T05:23:47.269Z,11.75
2023-05-04T05:26:19.342Z,15.63
2023-05-04T05:28:50.092Z,12.15
2023-05-04T05:31:20.612Z,12.38
2023-05-04T05:33:52.168Z,9.43
2023-05-04T05:36:22.799Z,8.85
2023-05-04T05:38:53.732Z,10.70
2023-05-04T05:41:25.726Z,9.68
2023-05-04T05:43:56.606Z,10.40
2023-05-04T05:46:28.269Z,14.55
2023-05-04T05:48:59.288Z,12.52
2023-05-04T05:51:29.822Z,9.57
2023-05-04T05:54:00.608Z,12.35
2023-05-04T05:56:32.610Z,7.25
2023-05-04T05:59:05.571Z,15.15
2023-05-04T06:01:37.623Z,9.15
2023-05-04T06:04:09.232Z,11.17
2023-05-04T06:06:39.964Z,9.52
2023-05-04T06:09:12.080Z,11.32
2023-05-04T06:11:44.497Z,8.43
2023-05-04T06:14:17.765Z,11.90
2023-05-04T06:16:49.869Z,7.15
2023-05-04T06:19:21.097Z,9.80
2023-05-04T06:21:52.420Z,10.00
2023-05-04T06:24:25.395Z,12.70
2023-05-04T06:26:58.189Z,8.60
2023-05-04T06:29:30.909Z,14.68
2023-05-04T06:32:04.418Z,13.68
2023-05-04T06:34:37.594Z,13.20
2023-05-04T06:37:09.166Z,10.63
2023-05-04T06:39:42.533Z,10.23
2023-05-04T06:42:15.661Z,10.00
2023-05-04T06:47:18.945Z,12.10
2023-05-04T06:49:53.315Z,9.32
2023-05-04T06:52:29.746Z,8.60
2023-05-04T06:55:01.988Z,7.63
2023-05-04T06:57:34.198Z,7.93
2023-05-04T07:00:07.404Z,9.57
2023-05-04T07:02:38.391Z,8.82
2023-05-04T07:05:10.971Z,9.27
2023-05-04T07:07:43.613Z,8.13
2023-05-04T07:10:15.329Z,9.05
2023-05-04T07:12:48.877Z,11.35
2023-05-04T07:15:20.076Z,8.02
2023-05-04T07:17:53.473Z,8.38
2023-05-04T07:20:26.563Z,8.32
2023-05-04T07:23:01.146Z,6.28
2023-05-04T07:25:32.504Z,5.05
2023-05-04T07:28:04.834Z,6.78
2023-05-04T07:30:36.960Z,6.45
2023-05-04T07:33:09.196Z,5.78
2023-05-04T07:35:41.318Z,8.70
2023-05-04T07:38:11.904Z,8.13
2023-05-04T07:40:47.056Z,6.78
2023-05-04T07:43:19.397Z,7.38
2023-05-04T07:45:54.464Z,5.85
2023-05-04T07:48:26.795Z,7.20
2023-05-04T07:50:58.490Z,9.02
2023-05-04T07:53:29.582Z,8.68
2023-05-04T07:56:15.183Z,7.20
2023-05-04T07:58:48.140Z,5.32
2023-05-04T08:01:22.528Z,4.68
2023-05-04T08:03:59.018Z,6.70
2023-05-04T08:06:36.871Z,5.85
2023-05-04T08:09:09.434Z,4.40
2023-05-04T08:11:42.222Z,4.22
2023-05-04T08:14:14.987Z,3.80
2023-05-04T08:16:46.208Z,3.00
2023-05-04T08:19:17.570Z,7.43
2023-05-04T08:21:49.070Z,5.63
2023-05-04T08:24:22.884Z,4.60
2023-05-04T08:27:06.496Z,5.20
2023-05-04T08:29:41.792Z,5.93
2023-05-04T08:32:12.734Z,6.72
2023-05-04T08:34:43.370Z,4.28
2023-05-04T08:37:14.527Z,5.25
2023-05-04T08:39:45.230Z,7.00
2023-05-04T08:42:16.081Z,7.38
2023-05-04T08:44:48.204Z,6.05
2023-05-04T08:47:20.305Z,6.05
2023-05-04T08:49:50.959Z,7.55
2023-05-04T08:52:28.232Z,7.50
2023-05-04T08:55:01.656Z,4.82
2023-05-04T08:57:34.651Z,4.85
2023-05-04T09:00:11.159Z,6.45
2023-05-04T09:02:43.374Z,3.75
2023-05-04T09:05:16.603Z,4.35
2023-05-04T09:07:51.132Z,5.80
2023-05-04T09:10:22.345Z,7.88
2023-05-04T09:12:56.090Z,8.88
2023-05-04T09:15:29.588Z,4.32
2023-05-04T09:18:07.328Z,5.18
2023-05-04T09:20:47.446Z,9.30
2023-05-04T09:23:19.120Z,6.97
2023-05-04T09:25:51.997Z,12.50
2023-05-04T09:28:35.100Z,5.95
2023-05-04T09:31:08.558Z,4.72
2023-05-04T09:33:39.522Z,6.43
2023-05-04T09:36:17.329Z,4.28
2023-05-04T09:38:49.036Z,9.20
2023-05-04T09:41:19.991Z,7.78
2023-05-04T09:43:50.959Z,7.18
2023-05-04T09:46:23.299Z,5.53
2023-05-04T09:48:55.302Z,8.13
2023-05-04T09:51:27.697Z,4.60
2023-05-04T09:54:02.915Z,4.43
2023-05-04T09:56:50.808Z,6.95
2023-05-04T09:59:22.185Z,6.03
2023-05-04T10:01:55.347Z,16.15
2023-05-04T10:04:27.066Z,4.80
2023-05-04T10:06:58.011Z,5.35
2023-05-04T10:09:32.661Z,6.22
2023-05-04T10:12:05.336Z,4.97
2023-05-04T10:14:36.969Z,4.40
2023-05-04T10:17:19.409Z,4.38
2023-05-04T10:20:08.574Z,5.50
2023-05-04T10:23:05.523Z,6.57
2023-05-04T10:26:19.055Z,6.68
2023-05-04T10:29:06.073Z,9.32
2023-05-04T10:31:44.980Z,5.70
2023-05-04T10:34:31.155Z,5.90
2023-05-04T10:37:03.770Z,4.72
2023-05-04T10:39:36.416Z,4.78
2023-05-04T10:42:09.485Z,4.22
2023-05-04T10:44:55.491Z,3.75
2023-05-04T10:47:33.051Z,5.97
2023-05-04T10:50:08.120Z,4.65
2023-05-04T10:52:49.632Z,3.75
2023-05-04T10:55:21.156Z,5.15
2023-05-04T10:57:54.602Z,3.55
2023-05-04T11:00:26.245Z,4.53
2023-05-04T11:03:05.539Z,3.85
2023-05-04T11:05:44.736Z,3.50
2023-05-04T11:08:20.090Z,4.78
2023-05-04T11:11:01.960Z,4.65
2023-05-04T11:13:35.194Z,4.20
2023-05-04T11:16:07.574Z,4.47
2023-05-04T11:18:38.709Z,4.65
2023-05-04T11:21:12.484Z,5.83
2023-05-04T11:23:43.852Z,5.53
2023-05-04T11:26:14.917Z,4.72
2023-05-04T11:28:45.806Z,4.07
2023-05-04T11:31:17.214Z,5.10
2023-05-04T11:33:50.304Z,2.85
2023-05-04T11:36:23.606Z,3.78
2023-05-04T11:38:58.856Z,3.85
2023-05-04T11:41:29.893Z,5.28
2023-05-04T11:44:01.915Z,3.75
2023-05-04T11:46:35.147Z,5.13
2023-05-04T11:49:06.872Z,5.82
2023-05-04T11:51:38.830Z,3.58
2023-05-04T11:54:20.316Z,4.95
2023-05-04T11:56:50.928Z,4.55
2023-05-04T11:59:24.684Z,8.23
2023-05-04T12:01:55.269Z,6.15
2023-05-04T12:04:31.838Z,5.13
2023-05-04T12:07:09.043Z,5.50
2023-05-04T12:09:47.046Z,6.07
2023-05-04T12:12:20.646Z,6.57
2023-05-04T12:14:54.009Z,5.32
2023-05-04T12:17:24.985Z,8.50
2023-05-04T12:19:58.465Z,5.90
2023-05-04T12:25:01.854Z,5.53
2023-05-04T12:27:32.997Z,3.53
2023-05-04T12:30:04.150Z,6.55
2023-05-04T12:32:34.838Z,4.25
2023-05-04T12:35:06.632Z,17.35
2023-05-04T12:37:39.231Z,4.70
2023-05-04T12:40:27.261Z,17.63
2023-05-04T12:42:58.838Z,6.30
2023-05-04T12:45:29.680Z,8.27
2023-05-04T12:48:00.210Z,7.45
2023-05-04T12:50:31.114Z,4.22
2023-05-04T12:53:04.356Z,8.80
2023-05-04T12:55:35.241Z,4.13
2023-05-04T12:58:06.734Z,6.55
2023-05-04T13:00:39.255Z,5.25
2023-05-04T13:03:09.969Z,4.60
2023-05-04T13:05:40.936Z,3.85
2023-05-04T13:08:12.567Z,5.65
2023-05-04T14:16:11.649Z,4.32
2023-05-04T14:18:42.686Z,4.30
2023-05-04T14:21:13.119Z,10.18
2023-05-04T14:23:44.823Z,9.25
2023-05-04T14:26:15.129Z,3.67
2023-05-04T14:28:46.080Z,5.57
2023-05-04T14:31:18.028Z,3.72
2023-05-04T14:33:48.631Z,2.00
2023-05-04T14:36:19.044Z,7.60
2023-05-04T14:38:49.832Z,2.88
2023-05-04T14:41:20.387Z,3.67
2023-05-04T14:43:51.201Z,7.43
2023-05-04T14:46:23.060Z,4.20
2023-05-04T14:48:53.945Z,3.90
2023-05-04T14:51:26.388Z,7.68
2023-05-04T14:53:59.705Z,3.17
2023-05-04T14:56:30.398Z,3.85
2023-05-04T14:59:01.852Z,5.25
2023-05-04T15:01:33.781Z,2.20
2023-05-04T15:04:04.715Z,6.43
2023-05-04T15:06:35.177Z,13.27
2023-05-04T15:09:05.961Z,5.10
2023-05-04T15:11:36.829Z,3.08
2023-05-04T15:14:07.641Z,5.07
2023-05-04T15:16:39.569Z,8.20
2023-05-04T15:19:13.121Z,5.13
2023-05-04T15:21:43.509Z,4.50
2023-05-04T15:24:16.327Z,5.25
2023-05-04T15:26:50.022Z,4.72
2023-05-04T15:29:24.015Z,10.27
2023-05-04T15:31:59.302Z,7.78
2023-05-04T15:34:30.546Z,5.20
2023-05-04T15:37:03.582Z,3.97
2023-05-04T15:39:34.386Z,4.47
2023-05-04T15:42:05.080Z,4.82
2023-05-04T15:44:36.299Z,7.03
2023-05-04T15:47:10.040Z,2.70
2023-05-04T15:49:41.842Z,4.55
2023-05-04T15:52:12.148Z,5.32
2023-05-04T15:54:43.490Z,4.55
2023-05-04T15:57:13.748Z,4.45
2023-05-04T15:59:44.753Z,5.70
2023-05-04T16:02:16.636Z,10.65
2023-05-04T16:04:47.667Z,8.03
2023-05-04T16:07:18.425Z,9.75
2023-05-04T16:09:49.055Z,6.80
2023-05-04T16:12:21.318Z,3.60
2023-05-04T16:14:52.238Z,4.30
2023-05-04T16:17:25.161Z,5.53
2023-05-04T16:22:26.500Z,6.00
2023-05-04T16:24:57.419Z,8.65
2023-05-04T16:27:28.620Z,6.10
2023-05-04T16:29:59.414Z,5.13
2023-05-04T16:32:31.423Z,4.60
2023-05-04T16:35:02.599Z,8.38
2023-05-04T16:37:33.393Z,9.32
2023-05-04T16:40:14.375Z,19.92
2023-05-04T16:42:46.333Z,9.75
2023-05-04T16:45:17.302Z,12.40
2023-05-04T16:47:49.268Z,14.57
2023-05-04T16:50:21.168Z,22.07
2023-05-04T16:52:51.535Z,7.82
2023-05-04T16:55:24.106Z,13.00
2023-05-04T16:57:58.729Z,16.05
2023-05-04T17:00:31.663Z,17.35
2023-05-04T17:03:05.217Z,6.93
2023-05-04T17:05:36.848Z,6.30
2023-05-04T17:08:08.996Z,3.67
2023-05-04T17:10:40.150Z,11.90
2023-05-04T17:13:11.370Z,9.82
2023-05-04T17:18:16.869Z,14.52
2023-05-04T17:20:47.950Z,48.47
2023-05-04T17:23:18.611Z,40.47
2023-05-04T17:25:51.291Z,31.30
2023-05-04T17:28:21.604Z,28.92
2023-05-04T17:30:55.526Z,28.58
2023-05-04T17:33:32.537Z,20.60
2023-05-04T17:36:06.136Z,27.10
2023-05-04T17:38:37.599Z,36.92
2023-05-04T17:41:10.270Z,38.92
2023-05-04T17:43:41.386Z,14.43
2023-05-04T17:46:12.513Z,15.68
2023-05-04T17:48:46.238Z,23.48
2023-05-04T17:51:17.631Z,10.70
2023-05-04T17:53:48.800Z,7.88
2023-05-04T17:56:21.396Z,8.30
2023-05-04T17:58:52.311Z,4.93
2023-05-04T18:01:23.669Z,9.60
2023-05-04T18:03:58.701Z,12.13
2023-05-04T18:06:29.785Z,13.40
2023-05-04T18:09:02.307Z,10.55
2023-05-04T18:11:33.596Z,10.63
2023-05-04T18:14:06.293Z,11.27
2023-05-04T18:16:40.599Z,12.23
2023-05-04T18:19:12.938Z,9.48
2023-05-04T18:21:44.011Z,14.33
2023-05-04T18:24:19.068Z,18.67
2023-05-04T18:27:18.712Z,13.98
2023-05-04T18:29:50.562Z,28.67
2023-05-04T18:32:21.643Z,30.48
2023-05-04T18:34:54.737Z,31.70
2023-05-04T18:39:58.202Z,40.60
2023-05-04T18:42:32.041Z,41.35
2023-05-04T18:45:07.124Z,51.00
2023-05-04T18:47:44.535Z,52.63
2023-05-04T18:50:17.970Z,87.28
2023-05-04T18:52:50.720Z,83.88
2023-05-04T18:55:22.192Z,48.08
2023-05-04T18:57:53.655Z,23.20
2023-05-04T19:00:24.113Z,17.10
2023-05-04T19:02:54.991Z,19.27
2023-05-04T19:05:26.942Z,23.73
2023-05-04T19:07:58.193Z,62.90
2023-05-04T19:10:29.105Z,42.95
2023-05-04T19:13:00.672Z,60.03
2023-05-04T19:15:33.684Z,29.08
2023-05-04T19:18:04.431Z,25.35
2023-05-04T19:20:38.393Z,35.17
2023-05-04T19:23:10.280Z,25.17
2023-05-04T19:25:40.893Z,27.40
2023-05-04T19:28:11.950Z,44.30
2023-05-04T19:30:42.867Z,32.28
2023-05-04T19:33:14.447Z,54.42
2023-05-04T19:35:59.312Z,55.03
2023-05-04T19:38:30.763Z,92.88
2023-05-04T19:41:05.526Z,55.70
2023-05-04T19:43:36.414Z,15.45
2023-05-04T19:46:08.243Z,14.38
2023-05-04T19:48:40.571Z,18.05
2023-05-04T19:51:12.786Z,23.88
2023-05-04T19:53:43.591Z,25.10
2023-05-04T19:56:14.415Z,25.65
2023-05-04T19:58:50.778Z,24.33
2023-05-04T20:01:21.168Z,17.92
2023-05-04T20:03:53.462Z,22.35
2023-05-04T20:06:29.398Z,31.83
2023-05-04T20:09:05.036Z,15.25
2023-05-04T20:11:38.357Z,32.95
2023-05-04T20:14:14.526Z,45.22
2023-05-04T20:16:49.888Z,42.55
2023-05-04T20:19:23.613Z,48.13
2023-05-04T20:22:02.614Z,55.75
2023-05-04T20:24:42.627Z,59.78
2023-05-04T20:27:19.540Z,35.60
2023-05-04T20:29:55.694Z,36.20
2023-05-04T20:32:32.713Z,44.05
2023-05-04T20:35:07.724Z,32.90
2023-05-04T20:37:51.225Z,34.63
2023-05-04T20:43:04.378Z,26.25
2023-05-04T20:45:37.119Z,25.83
2023-05-04T20:48:11.190Z,31.55
2023-05-04T20:50:45.574Z,28.55
2023-05-04T20:53:19.686Z,22.30
2023-05-04T20:55:51.560Z,21.48
2023-05-04T20:58:23.238Z,25.08
2023-05-04T21:00:55.194Z,22.02
2023-05-04T21:03:26.454Z,17.50
2023-05-04T21:06:01.308Z,19.90
2023-05-04T21:08:35.618Z,44.80
2023-05-04T21:11:09.702Z,49.78
2023-05-04T21:13:43.617Z,52.15
2023-05-04T21:16:15.241Z,38.92
2023-05-04T21:18:48.166Z,32.17
2023-05-04T21:21:19.716Z,32.88
2023-05-04T21:24:01.667Z,23.75
2023-05-04T21:26:32.538Z,27.90
2023-05-04T21:29:04.980Z,24.17
2023-05-04T21:31:36.545Z,31.92
2023-05-04T21:34:09.108Z,37.92
2023-05-04T21:36:44.584Z,29.08
2023-05-04T21:39:18.553Z,23.55
2023-05-04T21:41:56.445Z,22.45
2023-05-04T21:44:28.741Z,19.60
2023-05-04T21:47:01.275Z,20.58
2023-05-04T21:49:32.692Z,22.20
2023-05-04T21:52:04.724Z,23.23
2023-05-04T21:54:38.436Z,20.23
2023-05-04T21:57:09.935Z,17.98
2023-05-04T21:59:41.178Z,25.27
2023-05-04T22:02:11.951Z,49.67
2023-05-04T22:04:44.506Z,40.78
2023-05-04T22:07:15.672Z,31.88
2023-05-04T22:09:47.440Z,33.90
2023-05-04T22:12:18.288Z,23.45
2023-05-04T22:14:48.588Z,14.65
2023-05-04T22:17:19.436Z,15.77
2023-05-04T22:19:49.911Z,16.88
2023-05-04T22:22:20.776Z,15.13
2023-05-04T22:24:52.725Z,11.82
2023-05-04T22:27:23.893Z,12.70
2023-05-04T22:29:54.833Z,13.00
2023-05-04T22:32:25.675Z,10.48
2023-05-04T22:34:56.304Z,14.82
2023-05-04T22:37:27.141Z,9.10
2023-05-04T22:40:00.435Z,10.98
2023-05-04T22:42:31.341Z,12.98
2023-05-04T22:45:01.907Z,10.68
2023-05-04T22:47:33.604Z,11.43
2023-05-04T22:50:04.104Z,11.20
2023-05-04T22:52:35.043Z,14.70
2023-05-04T22:55:08.426Z,8.65
2023-05-04T22:57:38.997Z,11.93
2023-05-04T23:00:10.962Z,13.15
2023-05-04T23:02:42.261Z,11.43
2023-05-04T23:05:13.155Z,10.48
2023-05-04T23:07:43.967Z,11.52
2023-05-04T23:10:15.881Z,11.35
2023-05-04T23:12:46.653Z,15.27
2023-05-04T23:15:18.268Z,11.40
2023-05-04T23:17:49.137Z,11.98
2023-05-04T23:20:19.747Z,12.52
2023-05-04T23:22:50.532Z,45.67
2023-05-04T23:25:22.855Z,45.75
2023-05-04T23:27:53.789Z,45.42
2023-05-04T23:30:24.264Z,35.42
2023-05-04T23:32:55.248Z,16.65
2023-05-04T23:35:26.903Z,17.60
2023-05-04T23:37:57.717Z,17.33
2023-05-04T23:40:29.755Z,12.60
2023-05-04T23:43:01.157Z,13.90
2023-05-04T23:45:31.724Z,15.82
2023-05-04T23:48:03.047Z,13.90
2023-05-04T23:50:33.503Z,15.30
2023-05-04T23:53:04.537Z,9.70
2023-05-04T23:55:36.386Z,9.27
2023-05-04T23:58:07.185Z,18.77
